PGT585J LTFJ-LSZH
Flight info
| Callsign | PGT585J |
|---|---|
| Flight time | 2h 51m |
| Altitude | 36000 |
| Route | TUDBU1J/06L TUDBU DCT AMTOV DCT APROB DCT MOPUG DCT NALOX DCT GRZ DCT ERKIR DCT KPT L856 NEGRA |
| Aircraft | A21N/M-SDE2E3FGHIRWXY/LB1 |
Departure
| Time | 2026-05-05 16:38 |
|---|---|
| Airport | Istanbul Sabiha Gökçen International Airport (LTFJ) |
Arrival
| Time | 2026-05-05 19:29 |
|---|---|
| Airport | Zürich Airport (LSZH) |
| Time | Latitude | Longitude | Altitude | Speed | Heading |
|---|---|---|---|---|---|
| 2026-05-05 16:03 | 40.90598 | 29.31561 | 322 ft | 0 kts | 333° |
| 2026-05-05 16:28 | 40.90589 | 29.31567 | 324 ft | 4 kts | 334° |
| 2026-05-05 16:28 | 40.90565 | 29.31582 | 324 ft | 4 kts | 334° |
| 2026-05-05 16:28 | 40.90544 | 29.31595 | 324 ft | 3 kts | 334° |
| 2026-05-05 16:29 | 40.90526 | 29.31614 | 324 ft | 4 kts | 290° |
| 2026-05-05 16:29 | 40.90526 | 29.31645 | 323 ft | 5 kts | 246° |
| 2026-05-05 16:29 | 40.90528 | 29.31650 | 323 ft | 2 kts | 244° |
| 2026-05-05 16:31 | 40.90524 | 29.31641 | 323 ft | 3 kts | 244° |
| 2026-05-05 16:32 | 40.90510 | 29.31600 | 324 ft | 7 kts | 244° |
| 2026-05-05 16:32 | 40.90505 | 29.31587 | 326 ft | 11 kts | 244° |
| 2026-05-05 16:32 | 40.90464 | 29.31474 | 325 ft | 16 kts | 244° |
| 2026-05-05 16:32 | 40.90447 | 29.31433 | 326 ft | 0 kts | 238° |
| 2026-05-05 16:33 | 40.90426 | 29.31431 | 325 ft | 7 kts | 168° |
| 2026-05-05 16:33 | 40.90375 | 29.31461 | 326 ft | 10 kts | 153° |
| 2026-05-05 16:33 | 40.90295 | 29.31496 | 326 ft | 14 kts | 196° |
| 2026-05-05 16:33 | 40.90236 | 29.31384 | 325 ft | 17 kts | 244° |
| 2026-05-05 16:34 | 40.90184 | 29.31239 | 324 ft | 18 kts | 245° |
| 2026-05-05 16:34 | 40.90125 | 29.31080 | 323 ft | 20 kts | 244° |
| 2026-05-05 16:34 | 40.90062 | 29.30910 | 325 ft | 21 kts | 244° |
| 2026-05-05 16:34 | 40.89997 | 29.30734 | 326 ft | 22 kts | 244° |
| 2026-05-05 16:35 | 40.89951 | 29.30609 | 326 ft | 23 kts | 244° |
| 2026-05-05 16:35 | 40.89857 | 29.30353 | 326 ft | 24 kts | 244° |
| 2026-05-05 16:35 | 40.89783 | 29.30151 | 326 ft | 25 kts | 244° |
| 2026-05-05 16:35 | 40.89705 | 29.29940 | 325 ft | 26 kts | 244° |
| 2026-05-05 16:36 | 40.89652 | 29.29795 | 326 ft | 27 kts | 244° |
| 2026-05-05 16:36 | 40.89569 | 29.29571 | 326 ft | 28 kts | 244° |
| 2026-05-05 16:36 | 40.89486 | 29.29344 | 325 ft | 18 kts | 244° |
| 2026-05-05 16:36 | 40.89394 | 29.29251 | 326 ft | 19 kts | 156° |
| 2026-05-05 16:37 | 40.89287 | 29.29351 | 325 ft | 20 kts | 91° |
| 2026-05-05 16:37 | 40.89342 | 29.29524 | 326 ft | 24 kts | 64° |
| 2026-05-05 16:37 | 40.89521 | 29.30013 | 326 ft | 93 kts | 64° |
| 2026-05-05 16:37 | 40.89893 | 29.31026 | 325 ft | 149 kts | 64° |
| 2026-05-05 16:38 | 40.90391 | 29.32387 | 521 ft | 171 kts | 65° |
| 2026-05-05 16:38 | 40.90883 | 29.33788 | 1171 ft | 166 kts | 65° |
| 2026-05-05 16:38 | 40.91393 | 29.35158 | 1780 ft | 166 kts | 63° |
| 2026-05-05 16:38 | 40.91924 | 29.36569 | 2246 ft | 177 kts | 63° |
| 2026-05-05 16:39 | 40.92489 | 29.38102 | 2746 ft | 192 kts | 63° |
| 2026-05-05 16:39 | 40.93096 | 29.39743 | 3316 ft | 206 kts | 62° |
| 2026-05-05 16:39 | 40.93739 | 29.41492 | 3907 ft | 220 kts | 62° |
| 2026-05-05 16:39 | 40.94442 | 29.43413 | 4349 ft | 244 kts | 61° |
| 2026-05-05 16:40 | 40.95421 | 29.45315 | 4897 ft | 256 kts | 38° |
| 2026-05-05 16:40 | 40.96978 | 29.46410 | 5647 ft | 256 kts | 10° |
| 2026-05-05 16:40 | 40.98745 | 29.46474 | 6482 ft | 257 kts | 352° |
| 2026-05-05 16:40 | 41.00527 | 29.46142 | 7294 ft | 259 kts | 351° |
| 2026-05-05 16:41 | 41.02326 | 29.45802 | 8151 ft | 262 kts | 351° |
| 2026-05-05 16:41 | 41.04147 | 29.45478 | 9021 ft | 264 kts | 352° |
| 2026-05-05 16:41 | 41.05976 | 29.45173 | 9936 ft | 266 kts | 352° |
| 2026-05-05 16:41 | 41.07857 | 29.44864 | 10472 ft | 282 kts | 353° |
| 2026-05-05 16:42 | 41.09872 | 29.44542 | 10840 ft | 300 kts | 353° |
| 2026-05-05 16:42 | 41.11979 | 29.44209 | 11489 ft | 308 kts | 353° |
| 2026-05-05 16:42 | 41.14126 | 29.43877 | 12239 ft | 313 kts | 353° |
| 2026-05-05 16:42 | 41.16308 | 29.43539 | 12997 ft | 317 kts | 353° |
| 2026-05-05 16:43 | 41.18492 | 29.43204 | 13773 ft | 321 kts | 353° |
| 2026-05-05 16:43 | 41.20729 | 29.42862 | 14449 ft | 326 kts | 353° |
| 2026-05-05 16:43 | 41.23000 | 29.42509 | 15094 ft | 330 kts | 353° |
| 2026-05-05 16:43 | 41.25301 | 29.42148 | 15740 ft | 335 kts | 353° |
| 2026-05-05 16:44 | 41.27638 | 29.41782 | 16411 ft | 339 kts | 353° |
| 2026-05-05 16:44 | 41.29997 | 29.41411 | 17058 ft | 343 kts | 353° |
| 2026-05-05 16:44 | 41.32352 | 29.41042 | 17669 ft | 348 kts | 353° |
| 2026-05-05 16:44 | 41.34777 | 29.40667 | 18275 ft | 353 kts | 353° |
| 2026-05-05 16:45 | 41.37233 | 29.40284 | 18810 ft | 358 kts | 353° |
| 2026-05-05 16:45 | 41.39716 | 29.39890 | 19367 ft | 361 kts | 353° |
| 2026-05-05 16:45 | 41.42222 | 29.39494 | 19934 ft | 364 kts | 353° |
| 2026-05-05 16:45 | 41.44750 | 29.39097 | 20500 ft | 367 kts | 353° |
| 2026-05-05 16:46 | 41.47300 | 29.38696 | 21054 ft | 370 kts | 353° |
| 2026-05-05 16:46 | 41.49864 | 29.38291 | 21611 ft | 372 kts | 353° |
| 2026-05-05 16:46 | 41.52440 | 29.37882 | 22137 ft | 375 kts | 353° |
| 2026-05-05 16:46 | 41.55042 | 29.37431 | 22682 ft | 378 kts | 349° |
| 2026-05-05 16:47 | 41.57528 | 29.36244 | 23188 ft | 383 kts | 332° |
| 2026-05-05 16:47 | 41.59670 | 29.34104 | 23681 ft | 389 kts | 316° |
| 2026-05-05 16:47 | 41.61279 | 29.31173 | 24084 ft | 396 kts | 299° |
| 2026-05-05 16:47 | 41.62271 | 29.27712 | 24488 ft | 402 kts | 289° |
| 2026-05-05 16:48 | 41.63072 | 29.24123 | 24887 ft | 405 kts | 288° |
| 2026-05-05 16:48 | 41.63882 | 29.20504 | 25295 ft | 408 kts | 289° |
| 2026-05-05 16:48 | 41.64711 | 29.16875 | 25698 ft | 410 kts | 289° |
| 2026-05-05 16:48 | 41.65562 | 29.13215 | 26102 ft | 413 kts | 289° |
| 2026-05-05 16:49 | 41.66433 | 29.09527 | 26468 ft | 416 kts | 289° |
| 2026-05-05 16:49 | 41.67310 | 29.05815 | 26819 ft | 419 kts | 289° |
| 2026-05-05 16:49 | 41.68180 | 29.02132 | 27173 ft | 422 kts | 289° |
| 2026-05-05 16:49 | 41.69065 | 28.98360 | 27531 ft | 425 kts | 289° |
| 2026-05-05 16:50 | 41.69955 | 28.94564 | 27869 ft | 428 kts | 289° |
| 2026-05-05 16:50 | 41.70845 | 28.90745 | 28206 ft | 431 kts | 289° |
| 2026-05-05 16:50 | 41.71744 | 28.86904 | 28541 ft | 433 kts | 289° |
| 2026-05-05 16:50 | 41.72651 | 28.83047 | 28869 ft | 436 kts | 289° |
| 2026-05-05 16:51 | 41.73560 | 28.79162 | 29184 ft | 438 kts | 288° |
| 2026-05-05 16:51 | 41.74459 | 28.75306 | 29484 ft | 441 kts | 288° |
| 2026-05-05 16:51 | 41.75374 | 28.71367 | 29787 ft | 444 kts | 288° |
| 2026-05-05 16:51 | 41.76291 | 28.67414 | 30078 ft | 446 kts | 288° |
| 2026-05-05 16:52 | 41.77213 | 28.63430 | 30352 ft | 448 kts | 288° |
| 2026-05-05 16:52 | 41.78138 | 28.59436 | 30636 ft | 450 kts | 288° |
| 2026-05-05 16:52 | 41.79063 | 28.55421 | 30928 ft | 451 kts | 288° |
| 2026-05-05 16:52 | 41.79986 | 28.51407 | 31214 ft | 452 kts | 288° |
| 2026-05-05 16:53 | 41.80919 | 28.47354 | 31490 ft | 454 kts | 288° |
| 2026-05-05 16:53 | 41.81851 | 28.43300 | 31761 ft | 455 kts | 288° |
| 2026-05-05 16:53 | 41.82783 | 28.39230 | 32026 ft | 456 kts | 288° |
| 2026-05-05 16:53 | 41.83699 | 28.35207 | 32275 ft | 458 kts | 288° |
| 2026-05-05 16:54 | 41.84626 | 28.31113 | 32579 ft | 457 kts | 288° |
| 2026-05-05 16:54 | 41.85559 | 28.27028 | 32910 ft | 456 kts | 288° |
| 2026-05-05 16:54 | 41.86487 | 28.22969 | 33232 ft | 455 kts | 288° |
| 2026-05-05 16:54 | 41.87409 | 28.18902 | 33534 ft | 454 kts | 288° |
| 2026-05-05 16:55 | 41.88324 | 28.14852 | 33834 ft | 453 kts | 288° |
| 2026-05-05 16:55 | 41.89240 | 28.10803 | 34108 ft | 452 kts | 288° |
| 2026-05-05 16:55 | 41.90150 | 28.06768 | 34335 ft | 451 kts | 288° |
| 2026-05-05 16:55 | 41.91047 | 28.02786 | 34570 ft | 450 kts | 288° |
| 2026-05-05 16:56 | 41.91953 | 27.98743 | 34806 ft | 449 kts | 288° |
| 2026-05-05 16:56 | 41.92850 | 27.94732 | 35027 ft | 448 kts | 288° |
| 2026-05-05 16:56 | 41.93745 | 27.90732 | 35248 ft | 446 kts | 288° |
| 2026-05-05 16:56 | 41.94641 | 27.86733 | 35455 ft | 445 kts | 288° |
| 2026-05-05 16:57 | 41.95539 | 27.82756 | 35623 ft | 444 kts | 289° |
| 2026-05-05 16:57 | 41.96675 | 27.78966 | 35785 ft | 442 kts | 300° |
| 2026-05-05 16:57 | 41.98361 | 27.75530 | 35925 ft | 438 kts | 311° |
| 2026-05-05 16:57 | 42.00457 | 27.72572 | 36070 ft | 437 kts | 317° |
| 2026-05-05 16:58 | 42.04844 | 27.66908 | 36084 ft | 435 kts | 317° |
| 2026-05-05 16:58 | 42.09199 | 27.61226 | 36052 ft | 435 kts | 317° |
| 2026-05-05 16:59 | 42.13492 | 27.55567 | 36055 ft | 433 kts | 317° |
| 2026-05-05 16:59 | 42.17824 | 27.49843 | 36051 ft | 435 kts | 317° |
| 2026-05-05 17:00 | 42.22125 | 27.44153 | 36053 ft | 435 kts | 317° |
| 2026-05-05 17:00 | 42.26447 | 27.38423 | 36045 ft | 435 kts | 316° |
| 2026-05-05 17:01 | 42.30759 | 27.32692 | 36046 ft | 434 kts | 316° |
| 2026-05-05 17:01 | 42.35069 | 27.26949 | 36048 ft | 434 kts | 316° |
| 2026-05-05 17:02 | 42.39368 | 27.21211 | 36044 ft | 434 kts | 316° |
| 2026-05-05 17:02 | 42.43669 | 27.15461 | 36046 ft | 431 kts | 316° |
| 2026-05-05 17:03 | 42.47917 | 27.09769 | 36039 ft | 433 kts | 316° |
| 2026-05-05 17:03 | 42.52223 | 27.03990 | 36039 ft | 433 kts | 316° |
| 2026-05-05 17:04 | 42.56469 | 26.98274 | 36040 ft | 433 kts | 316° |
| 2026-05-05 17:04 | 42.60730 | 26.92527 | 36034 ft | 429 kts | 317° |
| 2026-05-05 17:05 | 42.64949 | 26.86828 | 36034 ft | 427 kts | 317° |
| 2026-05-05 17:05 | 42.69171 | 26.81118 | 36040 ft | 428 kts | 316° |
| 2026-05-05 17:06 | 42.73384 | 26.75402 | 36040 ft | 428 kts | 316° |
| 2026-05-05 17:06 | 42.77585 | 26.69687 | 36027 ft | 427 kts | 316° |
| 2026-05-05 17:07 | 42.81793 | 26.63956 | 36024 ft | 427 kts | 316° |
| 2026-05-05 17:07 | 42.85991 | 26.58223 | 36017 ft | 427 kts | 316° |
| 2026-05-05 17:08 | 42.90172 | 26.52508 | 36015 ft | 428 kts | 316° |
| 2026-05-05 17:08 | 42.94372 | 26.46748 | 36010 ft | 426 kts | 317° |
| 2026-05-05 17:09 | 42.98552 | 26.41012 | 36008 ft | 425 kts | 317° |
| 2026-05-05 17:09 | 43.02698 | 26.35312 | 36008 ft | 425 kts | 316° |
| 2026-05-05 17:10 | 43.06877 | 26.29545 | 35997 ft | 426 kts | 316° |
| 2026-05-05 17:10 | 43.11026 | 26.23809 | 35992 ft | 424 kts | 316° |
| 2026-05-05 17:11 | 43.15175 | 26.18064 | 35992 ft | 424 kts | 316° |
| 2026-05-05 17:11 | 43.19321 | 26.12300 | 35991 ft | 424 kts | 316° |
| 2026-05-05 17:12 | 43.23437 | 26.06482 | 35992 ft | 424 kts | 316° |
| 2026-05-05 17:12 | 43.27530 | 26.00698 | 35983 ft | 424 kts | 316° |
| 2026-05-05 17:13 | 43.31638 | 25.94888 | 35993 ft | 423 kts | 316° |
| 2026-05-05 17:13 | 43.35747 | 25.89056 | 35995 ft | 425 kts | 316° |
| 2026-05-05 17:14 | 43.39835 | 25.83247 | 35989 ft | 425 kts | 316° |
| 2026-05-05 17:14 | 43.43942 | 25.77399 | 35988 ft | 425 kts | 316° |
| 2026-05-05 17:15 | 43.48053 | 25.71537 | 35990 ft | 425 kts | 316° |
| 2026-05-05 17:15 | 43.52159 | 25.65664 | 35989 ft | 425 kts | 315° |
| 2026-05-05 17:16 | 43.56256 | 25.59794 | 35988 ft | 425 kts | 316° |
| 2026-05-05 17:16 | 43.60355 | 25.53907 | 35975 ft | 424 kts | 315° |
| 2026-05-05 17:17 | 43.64411 | 25.48073 | 35992 ft | 424 kts | 315° |
| 2026-05-05 17:17 | 43.68501 | 25.42175 | 35988 ft | 425 kts | 315° |
| 2026-05-05 17:18 | 43.72587 | 25.36270 | 35988 ft | 425 kts | 315° |
| 2026-05-05 17:18 | 43.76642 | 25.30393 | 35979 ft | 424 kts | 315° |
| 2026-05-05 17:19 | 43.80711 | 25.24489 | 35986 ft | 424 kts | 315° |
| 2026-05-05 17:19 | 43.84781 | 25.18581 | 35987 ft | 424 kts | 315° |
| 2026-05-05 17:20 | 43.88844 | 25.12644 | 35989 ft | 424 kts | 315° |
| 2026-05-05 17:20 | 43.92910 | 25.06694 | 35975 ft | 424 kts | 315° |
| 2026-05-05 17:21 | 43.96955 | 25.00752 | 35980 ft | 423 kts | 313° |
| 2026-05-05 17:22 | 44.02357 | 24.91098 | 35986 ft | 424 kts | 309° |
| 2026-05-05 17:22 | 44.05932 | 24.84553 | 35981 ft | 424 kts | 309° |
| 2026-05-05 17:23 | 44.09496 | 24.78020 | 35976 ft | 423 kts | 309° |
| 2026-05-05 17:23 | 44.13032 | 24.71526 | 35981 ft | 423 kts | 309° |
| 2026-05-05 17:24 | 44.16582 | 24.64990 | 35979 ft | 423 kts | 309° |
| 2026-05-05 17:24 | 44.19532 | 24.59550 | 35975 ft | 423 kts | 309° |
| 2026-05-05 17:25 | 44.23073 | 24.53005 | 35968 ft | 423 kts | 309° |
| 2026-05-05 17:25 | 44.26611 | 24.46447 | 35978 ft | 422 kts | 309° |
| 2026-05-05 17:26 | 44.30117 | 24.39937 | 35982 ft | 423 kts | 309° |
| 2026-05-05 17:26 | 44.33660 | 24.33342 | 35980 ft | 424 kts | 308° |
| 2026-05-05 17:27 | 44.37075 | 24.26600 | 35985 ft | 424 kts | 306° |
| 2026-05-05 17:27 | 44.40462 | 24.19935 | 35979 ft | 422 kts | 308° |
| 2026-05-05 17:28 | 44.44078 | 24.13407 | 35983 ft | 421 kts | 311° |
| 2026-05-05 17:28 | 44.47692 | 24.07010 | 35984 ft | 422 kts | 309° |
| 2026-05-05 17:29 | 44.51220 | 24.00432 | 35986 ft | 422 kts | 308° |
| 2026-05-05 17:29 | 44.54721 | 23.93823 | 35982 ft | 421 kts | 308° |
| 2026-05-05 17:30 | 44.58214 | 23.87211 | 35984 ft | 421 kts | 308° |
| 2026-05-05 17:30 | 44.61701 | 23.80599 | 35979 ft | 421 kts | 308° |
| 2026-05-05 17:31 | 44.65163 | 23.74020 | 35977 ft | 421 kts | 308° |
| 2026-05-05 17:31 | 44.68651 | 23.67375 | 35966 ft | 422 kts | 308° |
| 2026-05-05 17:32 | 44.72059 | 23.60641 | 35970 ft | 424 kts | 302° |
| 2026-05-05 17:32 | 44.75088 | 23.53568 | 35970 ft | 423 kts | 305° |
| 2026-05-05 17:33 | 44.78453 | 23.46784 | 35969 ft | 423 kts | 307° |
| 2026-05-05 17:33 | 44.81926 | 23.40090 | 35950 ft | 423 kts | 307° |
| 2026-05-05 17:34 | 44.85468 | 23.33477 | 35967 ft | 422 kts | 313° |
| 2026-05-05 17:34 | 44.89342 | 23.27300 | 35974 ft | 422 kts | 311° |
| 2026-05-05 17:35 | 44.92946 | 23.20749 | 35971 ft | 423 kts | 307° |
| 2026-05-05 17:35 | 44.96376 | 23.13993 | 35970 ft | 423 kts | 307° |
| 2026-05-05 17:36 | 44.99830 | 23.07247 | 35979 ft | 423 kts | 307° |
| 2026-05-05 17:36 | 45.03295 | 23.00512 | 35988 ft | 423 kts | 307° |
| 2026-05-05 17:37 | 45.06731 | 22.93808 | 35987 ft | 423 kts | 307° |
| 2026-05-05 17:37 | 45.10181 | 22.87048 | 35990 ft | 423 kts | 307° |
| 2026-05-05 17:38 | 45.13631 | 22.80286 | 35996 ft | 424 kts | 307° |
| 2026-05-05 17:38 | 45.17084 | 22.73490 | 35999 ft | 425 kts | 307° |
| 2026-05-05 17:39 | 45.20532 | 22.66682 | 36002 ft | 425 kts | 307° |
| 2026-05-05 17:39 | 45.23954 | 22.59909 | 36000 ft | 425 kts | 307° |
| 2026-05-05 17:40 | 45.27391 | 22.53092 | 35990 ft | 426 kts | 306° |
| 2026-05-05 17:40 | 45.30849 | 22.46217 | 35992 ft | 427 kts | 306° |
| 2026-05-05 17:41 | 45.34310 | 22.39343 | 35994 ft | 427 kts | 306° |
| 2026-05-05 17:41 | 45.37754 | 22.32456 | 35990 ft | 427 kts | 306° |
| 2026-05-05 17:42 | 45.41195 | 22.25563 | 35986 ft | 427 kts | 306° |
| 2026-05-05 17:42 | 45.44636 | 22.18664 | 35972 ft | 428 kts | 306° |
| 2026-05-05 17:43 | 45.48079 | 22.11741 | 35966 ft | 428 kts | 306° |
| 2026-05-05 17:43 | 45.51520 | 22.04802 | 35965 ft | 428 kts | 306° |
| 2026-05-05 17:44 | 45.54930 | 21.97909 | 35952 ft | 428 kts | 306° |
| 2026-05-05 17:44 | 45.58363 | 21.90954 | 35950 ft | 427 kts | 305° |
| 2026-05-05 17:45 | 45.61785 | 21.84009 | 35940 ft | 427 kts | 305° |
| 2026-05-05 17:45 | 45.65205 | 21.77046 | 35937 ft | 427 kts | 305° |
| 2026-05-05 17:46 | 45.68596 | 21.70130 | 35937 ft | 427 kts | 305° |
| 2026-05-05 17:46 | 45.72011 | 21.63143 | 35934 ft | 428 kts | 304° |
| 2026-05-05 17:47 | 45.75416 | 21.56146 | 35935 ft | 428 kts | 304° |
| 2026-05-05 17:47 | 45.78797 | 21.49185 | 35934 ft | 428 kts | 304° |
| 2026-05-05 17:48 | 45.82207 | 21.42171 | 35935 ft | 428 kts | 304° |
| 2026-05-05 17:48 | 45.85604 | 21.35147 | 35935 ft | 428 kts | 304° |
| 2026-05-05 17:49 | 45.88999 | 21.28126 | 35935 ft | 428 kts | 304° |
| 2026-05-05 17:49 | 45.92363 | 21.21134 | 35932 ft | 427 kts | 304° |
| 2026-05-05 17:50 | 45.95748 | 21.14095 | 35930 ft | 427 kts | 304° |
| 2026-05-05 17:50 | 45.99132 | 21.07029 | 35929 ft | 428 kts | 304° |
| 2026-05-05 17:51 | 46.02482 | 21.00023 | 35927 ft | 426 kts | 304° |
| 2026-05-05 17:51 | 46.05846 | 20.92964 | 35926 ft | 426 kts | 304° |
| 2026-05-05 17:52 | 46.09181 | 20.85948 | 35924 ft | 427 kts | 304° |
| 2026-05-05 17:52 | 46.12533 | 20.78887 | 35920 ft | 427 kts | 304° |
| 2026-05-05 17:53 | 46.15815 | 20.71726 | 35919 ft | 427 kts | 298° |
| 2026-05-05 17:53 | 46.17827 | 20.63754 | 35919 ft | 425 kts | 285° |
| 2026-05-05 17:54 | 46.19419 | 20.55525 | 35916 ft | 425 kts | 285° |
| 2026-05-05 17:54 | 46.21036 | 20.47320 | 35912 ft | 425 kts | 286° |
| 2026-05-05 17:55 | 46.22668 | 20.39093 | 35914 ft | 425 kts | 286° |
| 2026-05-05 17:55 | 46.24292 | 20.30882 | 35909 ft | 424 kts | 285° |
| 2026-05-05 17:56 | 46.25896 | 20.22741 | 35908 ft | 424 kts | 285° |
| 2026-05-05 17:56 | 46.27508 | 20.14538 | 35908 ft | 424 kts | 285° |
| 2026-05-05 17:57 | 46.29112 | 20.06332 | 35911 ft | 424 kts | 285° |
| 2026-05-05 17:57 | 46.30694 | 19.98174 | 35911 ft | 424 kts | 285° |
| 2026-05-05 17:58 | 46.32284 | 19.89949 | 35909 ft | 424 kts | 285° |
| 2026-05-05 17:58 | 46.33866 | 19.81733 | 35909 ft | 424 kts | 285° |
| 2026-05-05 17:59 | 46.35436 | 19.73515 | 35909 ft | 424 kts | 285° |
| 2026-05-05 17:59 | 46.37008 | 19.65282 | 35909 ft | 424 kts | 285° |
| 2026-05-05 18:00 | 46.38567 | 19.57092 | 35907 ft | 424 kts | 285° |
| 2026-05-05 18:00 | 46.40123 | 19.48855 | 35909 ft | 424 kts | 285° |
| 2026-05-05 18:01 | 46.41678 | 19.40608 | 35908 ft | 424 kts | 285° |
| 2026-05-05 18:01 | 46.43216 | 19.32408 | 35906 ft | 424 kts | 285° |
| 2026-05-05 18:02 | 46.44752 | 19.24167 | 35913 ft | 423 kts | 285° |
| 2026-05-05 18:02 | 46.46286 | 19.15923 | 35913 ft | 423 kts | 284° |
| 2026-05-05 18:03 | 46.47816 | 19.07662 | 35908 ft | 423 kts | 284° |
| 2026-05-05 18:03 | 46.49331 | 18.99399 | 35908 ft | 423 kts | 284° |
| 2026-05-05 18:04 | 46.50852 | 18.91119 | 35913 ft | 423 kts | 284° |
| 2026-05-05 18:04 | 46.52356 | 18.82901 | 35915 ft | 424 kts | 284° |
| 2026-05-05 18:05 | 46.53862 | 18.74618 | 35914 ft | 424 kts | 284° |
| 2026-05-05 18:05 | 46.55366 | 18.66300 | 35917 ft | 425 kts | 284° |
| 2026-05-05 18:06 | 46.56863 | 18.57988 | 35916 ft | 425 kts | 284° |
| 2026-05-05 18:06 | 46.58349 | 18.49719 | 35918 ft | 425 kts | 284° |
| 2026-05-05 18:07 | 46.59836 | 18.41390 | 35920 ft | 426 kts | 283° |
| 2026-05-05 18:07 | 46.61321 | 18.33029 | 35921 ft | 426 kts | 283° |
| 2026-05-05 18:08 | 46.62789 | 18.24727 | 35926 ft | 426 kts | 283° |
| 2026-05-05 18:08 | 46.64256 | 18.16365 | 35923 ft | 426 kts | 283° |
| 2026-05-05 18:09 | 46.65715 | 18.08009 | 35926 ft | 426 kts | 283° |
| 2026-05-05 18:09 | 46.67174 | 17.99651 | 35923 ft | 425 kts | 283° |
| 2026-05-05 18:10 | 46.68615 | 17.91350 | 35920 ft | 425 kts | 283° |
| 2026-05-05 18:10 | 46.70058 | 17.82972 | 35920 ft | 426 kts | 283° |
| 2026-05-05 18:11 | 46.71497 | 17.74648 | 35912 ft | 425 kts | 283° |
| 2026-05-05 18:11 | 46.72930 | 17.66270 | 35913 ft | 425 kts | 283° |
| 2026-05-05 18:12 | 46.74359 | 17.57885 | 35907 ft | 425 kts | 283° |
| 2026-05-05 18:12 | 46.75537 | 17.50933 | 35907 ft | 425 kts | 282° |
| 2026-05-05 18:13 | 46.77183 | 17.41187 | 35906 ft | 425 kts | 282° |
| 2026-05-05 18:13 | 46.78349 | 17.34229 | 35906 ft | 424 kts | 282° |
| 2026-05-05 18:14 | 46.79753 | 17.25847 | 35904 ft | 424 kts | 282° |
| 2026-05-05 18:14 | 46.81141 | 17.17501 | 35904 ft | 423 kts | 282° |
| 2026-05-05 18:15 | 46.82524 | 17.09141 | 35902 ft | 423 kts | 282° |
| 2026-05-05 18:15 | 46.83900 | 17.00785 | 35903 ft | 423 kts | 282° |
| 2026-05-05 18:16 | 46.85273 | 16.92408 | 35906 ft | 423 kts | 282° |
| 2026-05-05 18:16 | 46.86627 | 16.84094 | 35890 ft | 422 kts | 281° |
| 2026-05-05 18:17 | 46.87426 | 16.75591 | 35893 ft | 421 kts | 274° |
| 2026-05-05 18:17 | 46.87986 | 16.67068 | 35892 ft | 421 kts | 274° |
| 2026-05-05 18:18 | 46.88546 | 16.58589 | 35884 ft | 421 kts | 274° |
| 2026-05-05 18:18 | 46.89109 | 16.50055 | 35894 ft | 420 kts | 274° |
| 2026-05-05 18:19 | 46.89664 | 16.41583 | 35884 ft | 420 kts | 274° |
| 2026-05-05 18:19 | 46.90212 | 16.33081 | 35881 ft | 420 kts | 274° |
| 2026-05-05 18:20 | 46.90754 | 16.24588 | 35886 ft | 420 kts | 274° |
| 2026-05-05 18:20 | 46.91290 | 16.16080 | 35877 ft | 420 kts | 274° |
| 2026-05-05 18:21 | 46.91819 | 16.07578 | 35876 ft | 419 kts | 274° |
| 2026-05-05 18:21 | 46.92334 | 15.99126 | 35892 ft | 419 kts | 274° |
| 2026-05-05 18:22 | 46.92850 | 15.90614 | 35884 ft | 419 kts | 274° |
| 2026-05-05 18:22 | 46.93358 | 15.82104 | 35881 ft | 419 kts | 274° |
| 2026-05-05 18:23 | 46.93864 | 15.73648 | 35874 ft | 419 kts | 274° |
| 2026-05-05 18:23 | 46.94364 | 15.65178 | 35886 ft | 416 kts | 274° |
| 2026-05-05 18:24 | 46.94852 | 15.56731 | 35874 ft | 416 kts | 273° |
| 2026-05-05 18:24 | 46.95336 | 15.48289 | 35876 ft | 415 kts | 274° |
| 2026-05-05 18:25 | 46.96416 | 15.39978 | 35874 ft | 417 kts | 283° |
| 2026-05-05 18:25 | 46.97957 | 15.31775 | 35888 ft | 417 kts | 283° |
| 2026-05-05 18:26 | 46.99476 | 15.23619 | 35875 ft | 418 kts | 283° |
| 2026-05-05 18:26 | 47.00979 | 15.15441 | 35874 ft | 419 kts | 283° |
| 2026-05-05 18:27 | 47.02488 | 15.07187 | 35884 ft | 419 kts | 283° |
| 2026-05-05 18:27 | 47.03992 | 14.98917 | 35876 ft | 419 kts | 283° |
| 2026-05-05 18:28 | 47.06229 | 14.86560 | 35881 ft | 418 kts | 283° |
| 2026-05-05 18:28 | 47.07715 | 14.78312 | 35902 ft | 419 kts | 283° |
| 2026-05-05 18:29 | 47.09200 | 14.70046 | 35889 ft | 418 kts | 283° |
| 2026-05-05 18:29 | 47.10668 | 14.61805 | 35889 ft | 418 kts | 282° |
| 2026-05-05 18:30 | 47.12131 | 14.53546 | 35906 ft | 418 kts | 282° |
| 2026-05-05 18:30 | 47.13598 | 14.45253 | 35886 ft | 419 kts | 282° |
| 2026-05-05 18:31 | 47.15051 | 14.36997 | 35876 ft | 419 kts | 282° |
| 2026-05-05 18:31 | 47.16507 | 14.28685 | 35870 ft | 419 kts | 282° |
| 2026-05-05 18:32 | 47.17955 | 14.20381 | 35868 ft | 420 kts | 282° |
| 2026-05-05 18:32 | 47.19399 | 14.12055 | 35875 ft | 420 kts | 282° |
| 2026-05-05 18:33 | 47.20830 | 14.03765 | 35870 ft | 421 kts | 282° |
| 2026-05-05 18:33 | 47.22267 | 13.95409 | 35869 ft | 421 kts | 282° |
| 2026-05-05 18:34 | 47.23697 | 13.87051 | 35870 ft | 421 kts | 282° |
| 2026-05-05 18:34 | 47.25119 | 13.78695 | 35871 ft | 421 kts | 282° |
| 2026-05-05 18:35 | 47.26537 | 13.70330 | 35875 ft | 421 kts | 281° |
| 2026-05-05 18:35 | 47.27935 | 13.62024 | 35869 ft | 420 kts | 281° |
| 2026-05-05 18:36 | 47.29343 | 13.53635 | 35863 ft | 420 kts | 281° |
| 2026-05-05 18:36 | 47.30742 | 13.45250 | 35868 ft | 421 kts | 281° |
| 2026-05-05 18:37 | 47.32123 | 13.36917 | 35883 ft | 420 kts | 281° |
| 2026-05-05 18:37 | 47.33506 | 13.28547 | 35869 ft | 419 kts | 280° |
| 2026-05-05 18:38 | 47.34874 | 13.20242 | 35859 ft | 419 kts | 280° |
| 2026-05-05 18:38 | 47.36247 | 13.11874 | 35855 ft | 419 kts | 280° |
| 2026-05-05 18:39 | 47.37602 | 13.03522 | 35840 ft | 418 kts | 280° |
| 2026-05-05 18:39 | 47.38959 | 12.95151 | 35851 ft | 419 kts | 279° |
| 2026-05-05 18:40 | 47.40305 | 12.86828 | 35837 ft | 419 kts | 279° |
| 2026-05-05 18:40 | 47.41651 | 12.78458 | 35836 ft | 419 kts | 279° |
| 2026-05-05 18:41 | 47.42985 | 12.70087 | 35831 ft | 417 kts | 279° |
| 2026-05-05 18:41 | 47.44174 | 12.61625 | 35830 ft | 422 kts | 275° |
| 2026-05-05 18:42 | 47.45083 | 12.53125 | 35834 ft | 420 kts | 275° |
| 2026-05-05 18:42 | 47.46006 | 12.44571 | 35819 ft | 421 kts | 275° |
| 2026-05-05 18:43 | 47.46936 | 12.36071 | 35826 ft | 421 kts | 275° |
| 2026-05-05 18:43 | 47.47861 | 12.27528 | 35825 ft | 420 kts | 275° |
| 2026-05-05 18:44 | 47.48783 | 12.18963 | 35826 ft | 421 kts | 275° |
| 2026-05-05 18:44 | 47.49697 | 12.10408 | 35828 ft | 420 kts | 275° |
| 2026-05-05 18:45 | 47.50593 | 12.01892 | 35820 ft | 421 kts | 275° |
| 2026-05-05 18:45 | 47.51490 | 11.93325 | 35807 ft | 421 kts | 275° |
| 2026-05-05 18:46 | 47.52384 | 11.84757 | 35816 ft | 421 kts | 275° |
| 2026-05-05 18:46 | 47.53276 | 11.76200 | 35852 ft | 420 kts | 274° |
| 2026-05-05 18:47 | 47.54158 | 11.67691 | 35820 ft | 420 kts | 274° |
| 2026-05-05 18:47 | 47.55029 | 11.59135 | 35818 ft | 421 kts | 274° |
| 2026-05-05 18:48 | 47.55899 | 11.50564 | 35820 ft | 421 kts | 274° |
| 2026-05-05 18:48 | 47.56747 | 11.42162 | 35472 ft | 403 kts | 274° |
| 2026-05-05 18:49 | 47.57157 | 11.38080 | 35003 ft | 398 kts | 273° |
| 2026-05-05 18:49 | 47.57559 | 11.34052 | 34549 ft | 394 kts | 272° |
| 2026-05-05 18:49 | 47.57954 | 11.30051 | 34108 ft | 388 kts | 272° |
| 2026-05-05 18:49 | 47.58340 | 11.26109 | 33624 ft | 384 kts | 272° |
| 2026-05-05 18:50 | 47.58723 | 11.22205 | 33079 ft | 381 kts | 272° |
| 2026-05-05 18:50 | 47.59102 | 11.18343 | 32543 ft | 377 kts | 272° |
| 2026-05-05 18:50 | 47.59469 | 11.14570 | 32012 ft | 373 kts | 272° |
| 2026-05-05 18:50 | 47.59837 | 11.10787 | 31448 ft | 371 kts | 272° |
| 2026-05-05 18:51 | 47.60207 | 11.07006 | 30964 ft | 367 kts | 272° |
| 2026-05-05 18:51 | 47.60569 | 11.03280 | 30485 ft | 364 kts | 272° |
| 2026-05-05 18:51 | 47.60929 | 10.99569 | 30043 ft | 362 kts | 272° |
| 2026-05-05 18:51 | 47.61284 | 10.95891 | 29839 ft | 361 kts | 273° |
| 2026-05-05 18:52 | 47.61992 | 10.88470 | 29828 ft | 364 kts | 272° |
| 2026-05-05 18:52 | 47.62695 | 10.81076 | 29827 ft | 364 kts | 272° |
| 2026-05-05 18:53 | 47.63397 | 10.73619 | 29839 ft | 363 kts | 272° |
| 2026-05-05 18:53 | 47.63743 | 10.69941 | 29488 ft | 360 kts | 272° |
| 2026-05-05 18:53 | 47.64082 | 10.66308 | 29085 ft | 360 kts | 272° |
| 2026-05-05 18:54 | 47.64422 | 10.62659 | 28692 ft | 357 kts | 272° |
| 2026-05-05 18:54 | 47.64762 | 10.59008 | 28310 ft | 356 kts | 272° |
| 2026-05-05 18:54 | 47.65099 | 10.55373 | 27932 ft | 354 kts | 272° |
| 2026-05-05 18:54 | 47.65432 | 10.51749 | 27592 ft | 354 kts | 273° |
| 2026-05-05 18:55 | 47.65765 | 10.48125 | 27221 ft | 354 kts | 273° |
| 2026-05-05 18:55 | 47.66097 | 10.44512 | 26869 ft | 353 kts | 273° |
| 2026-05-05 18:55 | 47.66425 | 10.40910 | 26507 ft | 351 kts | 273° |
| 2026-05-05 18:55 | 47.66745 | 10.37374 | 26153 ft | 349 kts | 273° |
| 2026-05-05 18:56 | 47.67068 | 10.33810 | 25800 ft | 348 kts | 273° |
| 2026-05-05 18:56 | 47.67391 | 10.30256 | 25455 ft | 346 kts | 273° |
| 2026-05-05 18:56 | 47.67709 | 10.26719 | 25110 ft | 345 kts | 273° |
| 2026-05-05 18:56 | 47.68024 | 10.23195 | 24766 ft | 343 kts | 273° |
| 2026-05-05 18:57 | 47.68337 | 10.19688 | 24441 ft | 341 kts | 273° |
| 2026-05-05 18:57 | 47.68646 | 10.16195 | 24106 ft | 340 kts | 273° |
| 2026-05-05 18:57 | 47.68948 | 10.12768 | 23775 ft | 338 kts | 273° |
| 2026-05-05 18:57 | 47.69253 | 10.09306 | 23473 ft | 339 kts | 274° |
| 2026-05-05 18:58 | 47.69559 | 10.05822 | 23091 ft | 338 kts | 274° |
| 2026-05-05 18:58 | 47.69864 | 10.02362 | 22695 ft | 336 kts | 274° |
| 2026-05-05 18:58 | 47.70065 | 10.00083 | 22454 ft | 335 kts | 274° |
| 2026-05-05 18:58 | 47.70364 | 9.96655 | 22078 ft | 333 kts | 274° |
| 2026-05-05 18:59 | 47.70754 | 9.92146 | 21580 ft | 330 kts | 274° |
| 2026-05-05 18:59 | 47.71048 | 9.88774 | 21227 ft | 328 kts | 274° |
| 2026-05-05 18:59 | 47.71338 | 9.85421 | 20864 ft | 326 kts | 274° |
| 2026-05-05 18:59 | 47.71527 | 9.83201 | 20627 ft | 325 kts | 274° |
| 2026-05-05 19:00 | 47.71812 | 9.79880 | 20273 ft | 323 kts | 274° |
| 2026-05-05 19:00 | 47.72096 | 9.76569 | 19922 ft | 322 kts | 274° |
| 2026-05-05 19:00 | 47.72375 | 9.73278 | 19579 ft | 320 kts | 274° |
| 2026-05-05 19:00 | 47.72651 | 9.70011 | 19247 ft | 318 kts | 274° |
| 2026-05-05 19:01 | 47.72878 | 9.66753 | 18914 ft | 316 kts | 269° |
| 2026-05-05 19:01 | 47.72844 | 9.63494 | 18584 ft | 314 kts | 265° |
| 2026-05-05 19:01 | 47.72747 | 9.60257 | 18252 ft | 312 kts | 265° |
| 2026-05-05 19:01 | 47.72647 | 9.57052 | 17882 ft | 310 kts | 265° |
| 2026-05-05 19:02 | 47.72550 | 9.53868 | 17505 ft | 308 kts | 265° |
| 2026-05-05 19:02 | 47.72455 | 9.50691 | 17130 ft | 306 kts | 265° |
| 2026-05-05 19:02 | 47.72359 | 9.47538 | 16762 ft | 304 kts | 265° |
| 2026-05-05 19:02 | 47.72205 | 9.44459 | 16399 ft | 301 kts | 259° |
| 2026-05-05 19:03 | 47.71548 | 9.41550 | 16038 ft | 298 kts | 240° |
| 2026-05-05 19:03 | 47.70339 | 9.39054 | 15692 ft | 297 kts | 231° |
| 2026-05-05 19:03 | 47.69006 | 9.36697 | 15321 ft | 296 kts | 230° |
| 2026-05-05 19:03 | 47.67685 | 9.34366 | 14985 ft | 295 kts | 231° |
| 2026-05-05 19:04 | 47.66371 | 9.32022 | 14849 ft | 294 kts | 231° |
| 2026-05-05 19:04 | 47.65072 | 9.29686 | 14835 ft | 294 kts | 231° |
| 2026-05-05 19:04 | 47.63786 | 9.27364 | 14844 ft | 294 kts | 231° |
| 2026-05-05 19:04 | 47.62487 | 9.25015 | 14863 ft | 294 kts | 231° |
| 2026-05-05 19:05 | 47.61203 | 9.22681 | 14869 ft | 290 kts | 231° |
| 2026-05-05 19:05 | 47.59958 | 9.20340 | 14871 ft | 289 kts | 236° |
| 2026-05-05 19:05 | 47.59079 | 9.17683 | 14870 ft | 289 kts | 253° |
| 2026-05-05 19:05 | 47.58658 | 9.14765 | 14877 ft | 291 kts | 259° |
| 2026-05-05 19:06 | 47.58319 | 9.11799 | 14878 ft | 291 kts | 259° |
| 2026-05-05 19:06 | 47.57977 | 9.08845 | 14878 ft | 289 kts | 258° |
| 2026-05-05 19:06 | 47.57640 | 9.06016 | 14861 ft | 274 kts | 258° |
| 2026-05-05 19:06 | 47.57313 | 9.03322 | 14849 ft | 256 kts | 258° |
| 2026-05-05 19:07 | 47.57287 | 9.00782 | 14841 ft | 246 kts | 279° |
| 2026-05-05 19:07 | 47.57887 | 8.98391 | 14856 ft | 251 kts | 297° |
| 2026-05-05 19:07 | 47.59019 | 8.96379 | 14867 ft | 258 kts | 316° |
| 2026-05-05 19:07 | 47.60557 | 8.95028 | 14874 ft | 265 kts | 336° |
| 2026-05-05 19:08 | 47.62393 | 8.94509 | 14869 ft | 273 kts | 357° |
| 2026-05-05 19:08 | 47.64271 | 8.95003 | 14873 ft | 279 kts | 20° |
| 2026-05-05 19:08 | 47.65945 | 8.96485 | 14875 ft | 283 kts | 43° |
| 2026-05-05 19:08 | 47.67160 | 8.98799 | 14879 ft | 285 kts | 64° |
| 2026-05-05 19:09 | 47.67862 | 9.01546 | 14880 ft | 284 kts | 83° |
| 2026-05-05 19:09 | 47.67926 | 9.04420 | 14877 ft | 280 kts | 101° |
| 2026-05-05 19:09 | 47.67649 | 9.07292 | 14874 ft | 279 kts | 104° |
| 2026-05-05 19:09 | 47.67318 | 9.10133 | 14862 ft | 279 kts | 104° |
| 2026-05-05 19:10 | 47.66999 | 9.12986 | 14868 ft | 279 kts | 103° |
| 2026-05-05 19:10 | 47.66700 | 9.15836 | 14871 ft | 280 kts | 102° |
| 2026-05-05 19:10 | 47.66330 | 9.18618 | 14866 ft | 276 kts | 113° |
| 2026-05-05 19:10 | 47.65461 | 9.21094 | 14869 ft | 268 kts | 135° |
| 2026-05-05 19:11 | 47.64094 | 9.22900 | 14866 ft | 260 kts | 155° |
| 2026-05-05 19:11 | 47.62438 | 9.23865 | 14873 ft | 252 kts | 175° |
| 2026-05-05 19:11 | 47.60709 | 9.23943 | 14875 ft | 247 kts | 194° |
| 2026-05-05 19:11 | 47.59084 | 9.23210 | 14875 ft | 242 kts | 211° |
| 2026-05-05 19:12 | 47.57747 | 9.21790 | 14873 ft | 240 kts | 228° |
| 2026-05-05 19:12 | 47.56774 | 9.19790 | 14877 ft | 239 kts | 245° |
| 2026-05-05 19:12 | 47.56267 | 9.17441 | 14877 ft | 241 kts | 261° |
| 2026-05-05 19:12 | 47.56243 | 9.14968 | 14704 ft | 243 kts | 274° |
| 2026-05-05 19:13 | 47.56487 | 9.12488 | 14479 ft | 243 kts | 276° |
| 2026-05-05 19:13 | 47.56750 | 9.10018 | 14241 ft | 242 kts | 276° |
| 2026-05-05 19:13 | 47.56994 | 9.07577 | 14005 ft | 240 kts | 275° |
| 2026-05-05 19:13 | 47.57225 | 9.05121 | 13770 ft | 239 kts | 275° |
| 2026-05-05 19:14 | 47.57492 | 9.02731 | 13514 ft | 239 kts | 282° |
| 2026-05-05 19:14 | 47.58139 | 9.00460 | 13245 ft | 243 kts | 300° |
| 2026-05-05 19:14 | 47.59302 | 8.98598 | 12981 ft | 250 kts | 320° |
| 2026-05-05 19:14 | 47.60872 | 8.97418 | 12718 ft | 258 kts | 341° |
| 2026-05-05 19:15 | 47.62676 | 8.97159 | 12452 ft | 265 kts | 3° |
| 2026-05-05 19:15 | 47.64456 | 8.97929 | 12195 ft | 270 kts | 27° |
| 2026-05-05 19:15 | 47.65906 | 8.99645 | 11947 ft | 272 kts | 51° |
| 2026-05-05 19:15 | 47.66859 | 9.02070 | 11840 ft | 275 kts | 75° |
| 2026-05-05 19:16 | 47.67119 | 9.04855 | 11840 ft | 271 kts | 98° |
| 2026-05-05 19:16 | 47.66643 | 9.07483 | 11856 ft | 261 kts | 128° |
| 2026-05-05 19:16 | 47.65424 | 9.09355 | 11865 ft | 248 kts | 158° |
| 2026-05-05 19:16 | 47.63813 | 9.09990 | 11866 ft | 236 kts | 189° |
| 2026-05-05 19:17 | 47.62311 | 9.09283 | 11872 ft | 229 kts | 219° |
| 2026-05-05 19:17 | 47.61332 | 9.07480 | 11877 ft | 228 kts | 251° |
| 2026-05-05 19:17 | 47.61204 | 9.05147 | 11876 ft | 233 kts | 282° |
| 2026-05-05 19:17 | 47.61804 | 9.02887 | 11879 ft | 239 kts | 293° |
| 2026-05-05 19:18 | 47.62569 | 9.00671 | 11876 ft | 239 kts | 294° |
| 2026-05-05 19:18 | 47.63345 | 8.98484 | 11875 ft | 240 kts | 294° |
| 2026-05-05 19:18 | 47.64114 | 8.96332 | 11690 ft | 234 kts | 294° |
| 2026-05-05 19:18 | 47.64864 | 8.94234 | 11268 ft | 234 kts | 294° |
| 2026-05-05 19:19 | 47.65628 | 8.92090 | 10836 ft | 234 kts | 293° |
| 2026-05-05 19:19 | 47.66034 | 8.89809 | 10387 ft | 227 kts | 265° |
| 2026-05-05 19:19 | 47.65613 | 8.87617 | 9958 ft | 222 kts | 235° |
| 2026-05-05 19:19 | 47.64475 | 8.86106 | 9521 ft | 222 kts | 205° |
| 2026-05-05 19:20 | 47.62958 | 8.85744 | 9056 ft | 226 kts | 175° |
| 2026-05-05 19:20 | 47.61463 | 8.86390 | 8619 ft | 227 kts | 163° |
| 2026-05-05 19:20 | 47.59974 | 8.87227 | 8167 ft | 230 kts | 163° |
| 2026-05-05 19:20 | 47.58474 | 8.88085 | 7907 ft | 231 kts | 163° |
| 2026-05-05 19:21 | 47.56966 | 8.88947 | 7860 ft | 232 kts | 163° |
| 2026-05-05 19:21 | 47.55489 | 8.89943 | 7931 ft | 245 kts | 148° |
| 2026-05-05 19:21 | 47.54306 | 8.91837 | 7960 ft | 255 kts | 126° |
| 2026-05-05 19:21 | 47.53386 | 8.94096 | 7924 ft | 256 kts | 123° |
| 2026-05-05 19:22 | 47.52309 | 8.96054 | 7642 ft | 244 kts | 148° |
| 2026-05-05 19:22 | 47.50804 | 8.97049 | 7193 ft | 234 kts | 176° |
| 2026-05-05 19:22 | 47.49224 | 8.96910 | 6774 ft | 226 kts | 204° |
| 2026-05-05 19:22 | 47.47907 | 8.95708 | 6360 ft | 221 kts | 222° |
| 2026-05-05 19:23 | 47.46742 | 8.94237 | 5874 ft | 220 kts | 224° |
| 2026-05-05 19:23 | 47.45598 | 8.92758 | 5424 ft | 218 kts | 224° |
| 2026-05-05 19:23 | 47.44528 | 8.91159 | 5063 ft | 221 kts | 241° |
| 2026-05-05 19:23 | 47.43937 | 8.89099 | 4985 ft | 209 kts | 253° |
| 2026-05-05 19:24 | 47.43664 | 8.87157 | 5024 ft | 184 kts | 266° |
| 2026-05-05 19:24 | 47.43692 | 8.85322 | 5043 ft | 180 kts | 273° |
| 2026-05-05 19:24 | 47.43789 | 8.83480 | 5021 ft | 180 kts | 274° |
| 2026-05-05 19:24 | 47.43910 | 8.81643 | 4966 ft | 179 kts | 275° |
| 2026-05-05 19:25 | 47.44038 | 8.79817 | 4779 ft | 177 kts | 275° |
| 2026-05-05 19:25 | 47.44158 | 8.78124 | 4555 ft | 156 kts | 275° |
| 2026-05-05 19:25 | 47.44271 | 8.76541 | 4318 ft | 154 kts | 274° |
| 2026-05-05 19:25 | 47.44382 | 8.74978 | 4083 ft | 153 kts | 274° |
| 2026-05-05 19:26 | 47.44494 | 8.73404 | 3858 ft | 154 kts | 273° |
| 2026-05-05 19:26 | 47.44602 | 8.71904 | 3619 ft | 141 kts | 273° |
| 2026-05-05 19:26 | 47.44700 | 8.70520 | 3424 ft | 133 kts | 273° |
| 2026-05-05 19:26 | 47.44797 | 8.69156 | 3234 ft | 134 kts | 273° |
| 2026-05-05 19:27 | 47.44894 | 8.67804 | 3047 ft | 131 kts | 273° |
| 2026-05-05 19:27 | 47.44990 | 8.66456 | 2858 ft | 133 kts | 273° |
| 2026-05-05 19:27 | 47.45087 | 8.65094 | 2663 ft | 135 kts | 273° |
| 2026-05-05 19:27 | 47.45178 | 8.63710 | 2459 ft | 137 kts | 273° |
| 2026-05-05 19:28 | 47.45290 | 8.62316 | 2239 ft | 137 kts | 274° |
| 2026-05-05 19:28 | 47.45382 | 8.60912 | 2016 ft | 137 kts | 274° |
| 2026-05-05 19:28 | 47.45487 | 8.59504 | 1787 ft | 139 kts | 275° |
| 2026-05-05 19:28 | 47.45586 | 8.58080 | 1585 ft | 139 kts | 275° |
| 2026-05-05 19:29 | 47.45672 | 8.56794 | 1439 ft | 139 kts | 275° |
| 2026-05-05 19:29 | 47.45762 | 8.55625 | 1410 ft | 90 kts | 274° |
| 2026-05-05 19:29 | 47.45804 | 8.55007 | 1397 ft | 30 kts | 276° |
| 2026-05-05 19:29 | 47.45847 | 8.54782 | 1398 ft | 6 kts | 330° |
| 2026-05-05 19:30 | 47.45894 | 8.54762 | 1396 ft | 8 kts | 11° |
| 2026-05-05 19:30 | 47.45919 | 8.54841 | 1396 ft | 11 kts | 98° |
| 2026-05-05 19:30 | 47.45916 | 8.54930 | 1397 ft | 0 kts | 95° |
| 2026-05-05 19:30 | 47.45915 | 8.54936 | 1398 ft | 2 kts | 95° |
| 2026-05-05 19:31 | 47.45913 | 8.54975 | 1398 ft | 6 kts | 95° |
| 2026-05-05 19:31 | 47.45908 | 8.55049 | 1400 ft | 9 kts | 95° |
| 2026-05-05 19:31 | 47.45938 | 8.55132 | 1403 ft | 11 kts | 8° |
| 2026-05-05 19:31 | 47.46015 | 8.55089 | 1398 ft | 13 kts | 334° |
| 2026-05-05 19:32 | 47.46102 | 8.55029 | 1402 ft | 15 kts | 335° |
| 2026-05-05 19:32 | 47.46199 | 8.54964 | 1402 ft | 16 kts | 335° |
| 2026-05-05 19:32 | 47.46291 | 8.55019 | 1404 ft | 18 kts | 86° |
| 2026-05-05 19:32 | 47.46277 | 8.55187 | 1398 ft | 10 kts | 93° |
| 2026-05-05 19:33 | 47.46270 | 8.55306 | 1400 ft | 13 kts | 97° |
| 2026-05-05 19:33 | 47.46258 | 8.55452 | 1405 ft | 13 kts | 96° |
| 2026-05-05 19:33 | 47.46239 | 8.55496 | 1411 ft | 6 kts | 161° |
| 2026-05-05 19:33 | 47.46192 | 8.55494 | 1404 ft | 8 kts | 186° |
| 2026-05-05 19:34 | 47.46178 | 8.55492 | 1406 ft | 0 kts | 186° |
| 2026-05-05 19:34 | 47.46172 | 8.55491 | 1407 ft | 0 kts | 186° |